Time;durP1;ratioP1;P1;durP2;ratioP2;P2;SDS_P1;SDS_P2;PMS_P1;PMS_P2;Temp;Humidity;BMP_temperature;BMP_pressure;BME280_temperature;BME280_humidity;BME280_pressure;Samples;Min_cycle;Max_cycle;Signal;HPM_P1;HPM_P2
2021/10/03 00:00:40;;;;;;;14.70;10.50;;;;;;;12.02;62.30;100465.15;116912;1190;24017;-79
2021/10/03 00:03:22;;;;;;;15.30;11.20;;;;;;;12.01;62.38;100463.14;116843;1190;21873;-79
2021/10/03 00:05:54;;;;;;;14.80;10.70;;;;;;;12.01;62.46;100465.61;116816;1190;23535;-79
2021/10/03 00:08:26;;;;;;;15.00;11.90;;;;;;;12.02;62.53;100467.16;116837;1190;23984;-78
2021/10/03 00:10:56;;;;;;;16.10;10.80;;;;;;;12.02;62.45;100463.39;116816;1190;22919;-78
2021/10/03 00:13:27;;;;;;;14.80;10.10;;;;;;;12.02;62.59;100458.87;116861;1188;23616;-79
2021/10/03 00:15:56;;;;;;;12.20;10.40;;;;;;;12.02;62.52;100458.14;117185;1187;23579;-78
2021/10/03 00:18:26;;;;;;;17.80;10.50;;;;;;;12.02;62.45;100454.98;117186;1187;22945;-78
2021/10/03 00:20:56;;;;;;;14.70;10.10;;;;;;;12.00;62.58;100451.85;117189;1187;21882;-77
2021/10/03 00:23:27;;;;;;;12.20;9.70;;;;;;;11.98;62.53;100445.88;117195;1185;21921;-77
2021/10/03 00:25:56;;;;;;;11.90;9.30;;;;;;;11.97;62.47;100444.95;117186;1187;22941;-78
2021/10/03 00:28:26;;;;;;;16.20;10.40;;;;;;;11.95;62.51;100447.46;117181;1187;21874;-78
2021/10/03 00:30:56;;;;;;;12.00;9.20;;;;;;;11.95;62.58;100446.92;117166;1187;21871;-78
2021/10/03 00:33:27;;;;;;;13.90;9.80;;;;;;;11.95;62.54;100446.16;117189;1187;21873;-77
2021/10/03 00:35:56;;;;;;;11.00;9.50;;;;;;;11.96;62.59;100445.60;116894;1190;22003;-78
2021/10/03 00:38:25;;;;;;;12.40;9.60;;;;;;;11.98;62.57;100445.73;116822;1187;23033;-78
2021/10/03 00:40:55;;;;;;;12.00;9.60;;;;;;;12.00;62.58;100449.05;116910;1190;21923;-78
2021/10/03 00:43:25;;;;;;;13.60;10.40;;;;;;;11.99;62.40;100450.14;116893;1189;23504;-77
2021/10/03 00:45:54;;;;;;;13.50;10.10;;;;;;;11.97;62.39;100447.38;116920;1190;22297;-78
2021/10/03 00:48:24;;;;;;;15.50;10.60;;;;;;;11.95;62.58;100448.14;116796;1190;21904;-78
2021/10/03 00:50:54;;;;;;;12.10;10.60;;;;;;;11.94;62.62;100447.59;116893;1190;21862;-79
2021/10/03 00:53:23;;;;;;;15.00;11.40;;;;;;;11.93;62.51;100444.27;116881;1188;21927;-79
2021/10/03 00:55:53;;;;;;;13.90;10.90;;;;;;;11.92;62.43;100441.52;117230;1187;24056;-79
2021/10/03 00:58:23;;;;;;;17.00;12.20;;;;;;;11.90;62.35;100438.66;117094;1187;21885;-79
2021/10/03 01:00:55;;;;;;;11.20;10.00;;;;;;;11.88;62.49;100435.50;117179;1187;21895;-79
2021/10/03 01:03:25;;;;;;;17.90;11.50;;;;;;;11.87;62.53;100433.59;117199;1187;22624;-78
2021/10/03 01:05:54;;;;;;;16.90;10.90;;;;;;;11.85;62.60;100430.77;117160;1184;21897;-78
2021/10/03 01:08:23;;;;;;;14.30;11.00;;;;;;;11.85;62.63;100432.71;117203;1187;23479;-78
2021/10/03 01:10:53;;;;;;;12.00;9.80;;;;;;;11.86;62.64;100435.65;116885;1190;23442;-78
2021/10/03 01:13:23;;;;;;;11.40;10.20;;;;;;;11.85;62.60;100430.45;116864;1190;23018;-78
2021/10/03 01:15:54;;;;;;;13.30;9.00;;;;;;;11.83;62.60;100424.96;116879;1190;23262;-78
2021/10/03 01:18:24;;;;;;;10.70;9.70;;;;;;;11.80;62.57;100419.85;116808;1190;22998;-78
2021/10/03 01:20:54;;;;;;;12.10;10.10;;;;;;;11.77;62.63;100419.63;116841;1190;22926;-77
2021/10/03 01:23:23;;;;;;;10.50;9.30;;;;;;;11.75;62.69;100416.70;116896;1187;23003;-78
2021/10/03 01:25:52;;;;;;;11.90;9.60;;;;;;;11.72;62.57;100408.86;116834;1190;21879;-78
2021/10/03 01:28:22;;;;;;;11.10;9.70;;;;;;;11.71;62.65;100408.17;116934;1190;21879;-79
2021/10/03 01:30:54;;;;;;;10.60;9.00;;;;;;;11.70;62.69;100408.54;116820;1190;21893;-79
2021/10/03 01:33:29;;;;;;;12.70;9.30;;;;;;;11.69;62.64;100405.41;116883;1190;21879;-78
2021/10/03 01:35:59;;;;;;;11.70;10.00;;;;;;;11.68;62.76;100403.20;116987;1187;21902;-78
2021/10/03 01:38:28;;;;;;;11.40;8.80;;;;;;;11.69;62.89;100400.41;117099;1187;21892;-78
2021/10/03 01:40:57;;;;;;;16.20;9.30;;;;;;;11.69;62.84;100397.77;117203;1186;21905;-78
2021/10/03 01:43:27;;;;;;;13.60;8.80;;;;;;;11.67;62.86;100396.46;117210;1187;22751;-78
2021/10/03 01:45:57;;;;;;;13.70;8.80;;;;;;;11.65;62.89;100394.75;117193;1184;21873;-78
2021/10/03 01:48:46;;;;;;;12.30;8.50;;;;;;;11.64;62.97;100396.64;117194;1185;22972;-78
2021/10/03 01:51:17;;;;;;;10.30;8.90;;;;;;;11.62;63.09;100397.14;117275;1187;23603;-78
2021/10/03 01:53:53;;;;;;;12.00;8.70;;;;;;;11.61;63.01;100397.84;117254;1187;22851;-80
2021/10/03 01:56:23;;;;;;;9.20;8.30;;;;;;;11.59;63.01;100394.35;117083;1185;24126;-78
2021/10/03 01:59:02;;;;;;;11.90;8.60;;;;;;;11.58;62.99;100394.49;117195;1187;22611;-77
2021/10/03 02:01:43;;;;;;;11.80;8.60;;;;;;;11.58;63.05;100393.59;117239;1188;21874;-78
2021/10/03 02:04:27;;;;;;;14.40;9.30;;;;;;;11.59;63.09;100394.15;117231;1187;23472;-78
2021/10/03 02:06:59;;;;;;;9.10;8.00;;;;;;;11.60;63.17;100393.84;117280;1187;21890;-78
2021/10/03 02:09:28;;;;;;;;;;;;;;;11.62;63.04;100398.59;116962;1190;22217;-78
2021/10/03 02:12:01;;;;;;;9.50;8.50;;;;;;;11.57;63.21;100398.39;116915;1190;22602;-78
2021/10/03 02:14:32;;;;;;;12.70;8.90;;;;;;;11.59;63.37;100396.96;116911;1190;22715;-79
2021/10/03 02:17:02;;;;;;;10.60;8.80;;;;;;;11.64;63.18;100393.73;117078;1189;22462;-78
2021/10/03 02:19:32;;;;;;;11.80;8.90;;;;;;;11.69;63.11;100392.67;116912;1190;23577;-79
2021/10/03 02:22:01;;;;;;;12.10;9.00;;;;;;;11.68;62.97;100390.79;117042;1190;21868;-78
2021/10/03 02:24:31;;;;;;;16.30;8.40;;;;;;;11.69;63.00;100388.57;117031;1189;21916;-78
2021/10/03 02:27:03;;;;;;;15.30;9.30;;;;;;;11.68;62.83;100390.09;117048;1188;21906;-79
2021/10/03 02:29:33;;;;;;;10.30;8.20;;;;;;;11.65;62.88;100391.83;117207;1187;21890;-79
2021/10/03 02:32:04;;;;;;;13.90;8.60;;;;;;;11.65;62.94;100389.83;117159;1188;21898;-78
2021/10/03 02:34:33;;;;;;;10.80;8.70;;;;;;;11.65;62.78;100393.09;117096;1187;21893;-78
2021/10/03 02:37:03;;;;;;;12.80;9.20;;;;;;;11.66;62.88;100396.17;117106;1187;21897;-78
2021/10/03 02:39:32;;;;;;;16.20;9.20;;;;;;;11.67;62.86;100394.55;117248;1187;21887;-78
2021/10/03 02:42:03;;;;;;;17.60;9.20;;;;;;;11.69;62.81;100394.14;117201;1187;21906;-78
2021/10/03 02:44:33;;;;;;;14.10;9.20;;;;;;;11.69;62.72;100393.33;117239;1187;22162;-78
2021/10/03 02:47:11;;;;;;;16.00;9.80;;;;;;;11.71;62.83;100391.61;116919;1190;21900;-78
2021/10/03 02:49:42;;;;;;;10.70;9.70;;;;;;;11.71;62.82;100391.00;116832;1190;22856;-78
2021/10/03 02:52:12;;;;;;;16.40;10.30;;;;;;;11.71;62.87;100391.54;116940;1190;21918;-78
2021/10/03 02:54:42;;;;;;;18.60;10.70;;;;;;;11.71;62.82;100390.36;116889;1190;22002;-78
2021/10/03 02:57:12;;;;;;;10.60;9.60;;;;;;;11.71;62.80;100393.66;116936;1188;21878;-78
2021/10/03 02:59:41;;;;;;;14.60;9.80;;;;;;;11.69;62.89;100391.61;116930;1190;21982;-78
2021/10/03 03:02:11;;;;;;;9.80;8.60;;;;;;;11.67;62.97;100390.60;116849;1190;21897;-78
2021/10/03 03:04:41;;;;;;;12.80;9.30;;;;;;;11.65;62.85;100390.28;116972;1188;22861;-78
2021/10/03 03:07:10;;;;;;;11.20;8.50;;;;;;;11.62;62.79;100386.55;117193;1188;21890;-78
2021/10/03 03:09:40;;;;;;;13.10;9.00;;;;;;;11.60;62.88;100391.93;117231;1184;21876;-78
2021/10/03 03:12:12;;;;;;;12.20;8.80;;;;;;;11.60;63.06;100394.60;117153;1184;21903;-78
2021/10/03 03:14:41;;;;;;;20.70;8.80;;;;;;;11.61;63.04;100395.55;117187;1185;22640;-78
2021/10/03 03:17:18;;;;;;;13.20;8.00;;;;;;;11.62;63.12;100396.52;117188;1187;22968;-78
2021/10/03 03:19:48;;;;;;;15.00;8.80;;;;;;;11.63;63.18;100401.67;117227;1187;21920;-79
2021/10/03 03:22:18;;;;;;;11.90;9.70;;;;;;;11.64;63.27;100397.63;117153;1188;22627;-79
2021/10/03 03:24:47;;;;;;;12.90;8.70;;;;;;;11.65;63.27;100395.55;117235;1187;23416;-78
2021/10/03 03:27:16;;;;;;;12.60;8.00;;;;;;;11.67;63.05;100392.72;117203;1188;24142;-78
2021/10/03 03:29:45;;;;;;;11.30;8.20;;;;;;;11.69;63.13;100395.29;117161;1188;22847;-78
2021/10/03 03:32:16;;;;;;;15.40;8.60;;;;;;;11.72;63.05;100392.20;117192;1187;21899;-76
2021/10/03 03:34:45;;;;;;;14.40;8.50;;;;;;;11.74;63.05;100388.77;117196;1184;22902;-77
2021/10/03 03:37:14;;;;;;;10.00;8.80;;;;;;;11.74;63.00;100385.73;117239;1187;23438;-78
2021/10/03 03:39:43;;;;;;;13.80;7.80;;;;;;;11.74;62.90;100389.25;117217;1185;21872;-78
2021/10/03 03:42:17;;;;;;;13.70;8.20;;;;;;;11.73;62.85;100389.38;117100;1188;21885;-77
2021/10/03 03:44:46;;;;;;;10.90;8.20;;;;;;;11.71;62.84;100388.23;117154;1188;23457;-78
2021/10/03 03:47:15;;;;;;;13.10;9.00;;;;;;;11.69;62.86;100389.09;117228;1187;21890;-79
2021/10/03 03:49:50;;;;;;;14.40;8.90;;;;;;;11.68;62.97;100386.02;117217;1187;21891;-78
2021/10/03 03:52:21;;;;;;;9.60;7.90;;;;;;;11.68;63.02;100391.33;117198;1188;21888;-79
2021/10/03 03:54:52;;;;;;;11.90;9.60;;;;;;;11.69;63.01;100393.00;117214;1188;23442;-78
2021/10/03 03:57:22;;;;;;;11.20;9.30;;;;;;;11.72;63.02;100392.33;117272;1187;21876;-78
2021/10/03 03:59:52;;;;;;;12.80;9.20;;;;;;;11.75;63.05;100392.96;117222;1187;21871;-78
2021/10/03 04:02:21;;;;;;;14.40;9.20;;;;;;;11.78;63.01;100392.35;117210;1188;21949;-77
2021/10/03 04:04:51;;;;;;;11.20;8.60;;;;;;;11.78;63.03;100389.15;117237;1185;22544;-77
2021/10/03 04:07:20;;;;;;;12.60;9.50;;;;;;;11.78;62.96;100386.21;117152;1188;22926;-79
2021/10/03 04:09:51;;;;;;;13.90;9.50;;;;;;;11.77;62.85;100381.51;117215;1187;22029;-79
2021/10/03 04:12:20;;;;;;;12.40;9.80;;;;;;;11.75;62.91;100378.25;117058;1187;23667;-79
2021/10/03 04:14:49;;;;;;;11.30;8.90;;;;;;;11.72;62.74;100378.86;117229;1179;21863;-79
2021/10/03 04:17:19;;;;;;;10.90;9.00;;;;;;;11.70;62.93;100381.55;117215;1187;23616;-78
2021/10/03 04:19:48;;;;;;;11.20;10.00;;;;;;;11.71;62.87;100389.98;117193;1188;22618;-78
2021/10/03 04:22:17;;;;;;;15.00;10.60;;;;;;;11.72;62.96;100391.77;117172;1188;21994;-78
2021/10/03 04:24:46;;;;;;;10.50;9.40;;;;;;;11.74;62.91;100393.96;117223;1187;21885;-79
2021/10/03 04:27:16;;;;;;;18.20;11.00;;;;;;;11.78;62.85;100394.86;117150;1188;21898;-78
2021/10/03 04:29:45;;;;;;;14.60;10.00;;;;;;;11.79;62.93;100391.48;117272;1184;22810;-78
2021/10/03 04:32:15;;;;;;;12.50;9.70;;;;;;;11.80;62.81;100387.02;117197;1187;23507;-78
2021/10/03 04:34:44;;;;;;;11.60;10.40;;;;;;;11.79;62.75;100389.28;117215;1187;22649;-79
2021/10/03 04:37:14;;;;;;;16.40;11.00;;;;;;;11.78;62.77;100389.02;117222;1187;22059;-78
2021/10/03 04:39:44;;;;;;;16.50;9.60;;;;;;;11.76;62.72;100386.19;117237;1187;23502;-78
2021/10/03 04:42:13;;;;;;;13.70;10.90;;;;;;;11.76;62.52;100388.34;117227;1187;23534;-78
2021/10/03 04:44:42;;;;;;;11.50;10.10;;;;;;;11.77;62.54;100386.45;117187;1184;21900;-78
2021/10/03 04:47:12;;;;;;;12.00;10.20;;;;;;;11.79;62.45;100386.77;117160;1188;22388;-78
2021/10/03 04:49:43;;;;;;;14.10;10.30;;;;;;;11.81;62.49;100385.81;117082;1188;23499;-78
2021/10/03 04:52:13;;;;;;;16.60;10.50;;;;;;;11.85;62.50;100385.27;117185;1188;22523;-78
2021/10/03 04:54:42;;;;;;;16.60;11.90;;;;;;;11.87;62.26;100386.04;117055;1185;21879;-78
2021/10/03 04:57:11;;;;;;;16.20;11.10;;;;;;;11.87;62.20;100386.94;116975;1188;22825;-79
2021/10/03 04:59:41;;;;;;;19.50;11.70;;;;;;;11.86;61.99;100387.60;117255;1188;21892;-78
2021/10/03 05:02:12;;;;;;;20.50;11.20;;;;;;;11.85;61.96;100385.91;117313;1184;21877;-80
2021/10/03 05:04:42;;;;;;;20.30;9.60;;;;;;;11.87;62.04;100383.27;117098;1188;22064;-78
2021/10/03 05:07:11;;;;;;;11.00;9.90;;;;;;;11.91;62.04;100382.66;117088;1188;21886;-78
2021/10/03 05:09:41;;;;;;;14.20;10.50;;;;;;;11.92;61.76;100385.89;116848;1191;22351;-79
2021/10/03 05:12:10;;;;;;;13.50;10.60;;;;;;;11.93;61.61;100377.32;116768;1192;23013;-79
2021/10/03 05:14:39;;;;;;;13.00;9.60;;;;;;;11.96;61.70;100374.27;116556;1192;22176;-79
2021/10/03 05:17:09;;;;;;;11.30;10.10;;;;;;;12.00;61.67;100373.48;116789;1184;21934;-77
2021/10/03 05:19:38;;;;;;;10.50;9.40;;;;;;;12.02;61.54;100370.03;116745;1192;21914;-78
2021/10/03 05:22:07;;;;;;;14.20;10.00;;;;;;;12.02;61.49;100364.37;116821;1192;21993;-78
2021/10/03 05:24:37;;;;;;;15.30;9.80;;;;;;;12.04;61.35;100372.59;116622;1190;22444;-78
2021/10/03 05:27:07;;;;;;;16.20;9.70;;;;;;;12.07;61.12;100370.23;116637;1190;24139;-77
2021/10/03 05:29:39;;;;;;;11.90;9.60;;;;;;;12.09;61.14;100368.36;116838;1188;22446;-77
2021/10/03 05:32:08;;;;;;;14.70;9.80;;;;;;;12.11;60.92;100368.80;117200;1183;24142;-77
2021/10/03 05:34:38;;;;;;;14.60;9.40;;;;;;;12.16;60.89;100368.66;117067;1188;24240;-77
2021/10/03 05:37:07;;;;;;;14.50;9.70;;;;;;;12.22;60.86;100375.18;117147;1188;21875;-78
2021/10/03 05:39:36;;;;;;;12.00;9.50;;;;;;;12.30;60.77;100369.16;117359;1188;21900;-77
2021/10/03 05:42:07;;;;;;;15.00;10.30;;;;;;;12.35;60.58;100367.84;117235;1188;23980;-77
2021/10/03 05:44:36;;;;;;;16.90;9.80;;;;;;;12.40;60.25;100367.01;117126;1188;21892;-78
2021/10/03 05:47:05;;;;;;;14.70;10.40;;;;;;;12.44;60.28;100362.50;116903;1184;23547;-78
2021/10/03 05:49:34;;;;;;;12.50;10.00;;;;;;;12.47;60.03;100366.63;116779;1191;21990;-78
2021/10/03 05:52:10;;;;;;;14.70;9.20;;;;;;;12.49;59.93;100360.41;116853;1191;21907;-77
2021/10/03 05:54:42;;;;;;;13.90;9.10;;;;;;;12.50;59.78;100361.79;116925;1191;23474;-78
2021/10/03 05:57:11;;;;;;;14.30;9.30;;;;;;;12.51;59.78;100362.17;116802;1184;21903;-78
2021/10/03 05:59:40;;;;;;;13.80;9.70;;;;;;;12.55;59.65;100364.92;116901;1187;22147;-78
2021/10/03 06:02:11;;;;;;;13.80;9.80;;;;;;;12.61;59.56;100363.70;116804;1191;23830;-77
2021/10/03 06:04:41;;;;;;;11.50;9.40;;;;;;;12.67;59.49;100364.60;116819;1189;23425;-78
2021/10/03 06:07:10;;;;;;;14.20;9.00;;;;;;;12.72;59.36;100364.36;117179;1181;22910;-78
2021/10/03 06:09:39;;;;;;;12.30;9.00;;;;;;;12.79;59.19;100364.83;117129;1177;21890;-78
2021/10/03 06:12:12;;;;;;;16.10;9.10;;;;;;;12.81;58.93;100361.70;117183;1185;23457;-78
2021/10/03 06:14:49;;;;;;;11.80;9.20;;;;;;;12.84;58.85;100366.52;117185;1188;22263;-78
2021/10/03 06:17:18;;;;;;;12.10;9.70;;;;;;;12.86;58.78;100367.70;117155;1188;21904;-78
2021/10/03 06:19:47;;;;;;;11.20;8.50;;;;;;;12.89;58.74;100371.40;117057;1188;21880;-78
2021/10/03 06:22:23;;;;;;;16.80;8.60;;;;;;;12.94;58.68;100372.86;117125;1187;21887;-78
2021/10/03 06:24:55;;;;;;;15.10;8.50;;;;;;;12.97;58.37;100368.17;117169;1188;21851;-78
2021/10/03 06:27:25;;;;;;;11.80;9.20;;;;;;;12.99;58.41;100369.44;117190;1188;21930;-78
2021/10/03 06:29:54;;;;;;;14.00;8.50;;;;;;;13.03;58.32;100371.66;117165;1188;21877;-76
2021/10/03 06:32:24;;;;;;;12.10;8.80;;;;;;;13.09;58.37;100374.44;117146;1188;21871;-77
2021/10/03 06:34:53;;;;;;;13.70;9.10;;;;;;;13.18;58.37;100375.85;116924;1190;21883;-76
2021/10/03 06:37:22;;;;;;;12.80;8.70;;;;;;;13.27;58.32;100371.21;116801;1190;21913;-75
2021/10/03 06:39:52;;;;;;;11.60;8.50;;;;;;;13.38;58.25;100372.02;116915;1187;21863;-78
2021/10/03 06:42:21;;;;;;;10.20;9.00;;;;;;;13.52;58.18;100366.30;116846;1190;21904;-78
2021/10/03 06:44:50;;;;;;;16.30;8.80;;;;;;;13.69;57.90;100363.52;116931;1190;21958;-79
2021/10/03 06:47:19;;;;;;;13.10;8.60;;;;;;;13.90;57.84;100366.95;116859;1190;24174;-78
2021/10/03 06:49:49;;;;;;;10.40;8.10;;;;;;;14.11;57.51;100365.10;116785;1182;21906;-78
2021/10/03 06:52:18;;;;;;;12.00;8.40;;;;;;;14.32;56.99;100364.44;116857;1188;23576;-78
2021/10/03 06:54:47;;;;;;;13.00;8.30;;;;;;;14.47;56.05;100362.12;117183;1184;23030;-77
2021/10/03 06:57:16;;;;;;;11.40;7.60;;;;;;;14.59;55.39;100361.36;117154;1188;22268;-77
2021/10/03 06:59:45;;;;;;;14.40;8.60;;;;;;;14.71;54.88;100361.95;117185;1188;21918;-79
2021/10/03 07:02:28;;;;;;;12.70;8.10;;;;;;;14.87;54.98;100365.84;117052;1188;22901;-77
2021/10/03 07:04:58;;;;;;;9.90;8.90;;;;;;;15.06;54.48;100369.52;117070;1189;23438;-77
2021/10/03 07:07:28;;;;;;;14.10;9.00;;;;;;;15.25;54.16;100373.57;117147;1188;22904;-78
2021/10/03 07:09:58;;;;;;;12.40;8.00;;;;;;;15.48;54.09;100378.52;117083;1189;24143;-77
2021/10/03 07:12:27;;;;;;;12.80;9.20;;;;;;;15.71;53.36;100375.17;117060;1185;23522;-78
2021/10/03 07:14:57;;;;;;;16.10;9.10;;;;;;;15.95;52.71;100373.73;117119;1188;21890;-78
2021/10/03 07:17:26;;;;;;;11.60;7.50;;;;;;;16.21;52.53;100369.48;117153;1188;22629;-77
2021/10/03 07:19:57;;;;;;;12.50;7.70;;;;;;;16.50;51.62;100368.13;117104;1188;22938;-77
2021/10/03 07:22:26;;;;;;;11.50;7.70;;;;;;;16.73;50.70;100366.77;117097;1188;21907;-78
2021/10/03 07:24:55;;;;;;;11.60;7.30;;;;;;;16.89;49.95;100368.56;117064;1188;23636;-77
2021/10/03 07:27:27;;;;;;;13.10;8.00;;;;;;;17.05;49.47;100370.99;117146;1175;22645;-78
2021/10/03 07:29:57;;;;;;;11.40;7.60;;;;;;;17.27;49.20;100373.98;117161;1188;21895;-77
2021/10/03 07:32:26;;;;;;;12.70;7.30;;;;;;;17.46;48.17;100370.67;117161;1188;21882;-78
2021/10/03 07:34:59;;;;;;;8.20;6.30;;;;;;;17.70;48.27;100364.60;117053;1188;21899;-78
2021/10/03 07:37:28;;;;;;;9.10;6.40;;;;;;;17.89;47.49;100365.46;117108;1188;22656;-76
2021/10/03 07:39:57;;;;;;;14.70;6.80;;;;;;;18.00;46.97;100367.23;117124;1188;21899;-78
2021/10/03 07:42:27;;;;;;;10.70;7.30;;;;;;;18.02;45.96;100365.95;116949;1187;24080;-78
2021/10/03 07:44:56;;;;;;;10.90;7.70;;;;;;;17.95;45.57;100364.27;117201;1187;24143;-78
2021/10/03 07:47:25;;;;;;;9.60;7.50;;;;;;;17.90;46.02;100363.20;117141;1187;21883;-79
2021/10/03 07:49:57;;;;;;;8.10;6.90;;;;;;;17.83;46.08;100361.27;117189;1183;21876;-79
2021/10/03 07:52:32;;;;;;;8.40;6.50;;;;;;;17.72;45.71;100360.17;117147;1188;23550;-79
2021/10/03 07:55:01;;;;;;;10.30;6.90;;;;;;;17.56;45.70;100361.09;117180;1187;22835;-78
2021/10/03 07:57:30;;;;;;;12.00;7.30;;;;;;;17.46;46.28;100363.40;117187;1187;23432;-77
2021/10/03 07:59:59;;;;;;;11.30;6.70;;;;;;;17.46;46.27;100367.60;117172;1187;22343;-78
2021/10/03 08:02:38;;;;;;;9.80;6.50;;;;;;;17.41;46.14;100370.08;117197;1187;21923;-82
2021/10/03 08:05:08;;;;;;;12.20;7.90;;;;;;;17.47;46.44;100370.22;117214;1187;23453;-79
2021/10/03 08:07:37;;;;;;;9.50;7.30;;;;;;;17.57;46.22;100371.32;117150;1187;22906;-78
2021/10/03 08:10:07;;;;;;;15.40;7.90;;;;;;;17.58;45.88;100377.31;117072;1187;21881;-78
2021/10/03 08:12:36;;;;;;;13.90;7.60;;;;;;;17.54;45.94;100376.30;117206;1187;24187;-77
2021/10/03 08:15:06;;;;;;;10.60;7.60;;;;;;;17.53;45.85;100381.45;117212;1187;21878;-77
2021/10/03 08:17:36;;;;;;;12.90;8.00;;;;;;;17.42;45.71;100378.75;117193;1187;21900;-77
2021/10/03 08:20:07;;;;;;;14.50;8.60;;;;;;;17.42;46.41;100380.55;116982;1190;23467;-77
2021/10/03 08:22:36;;;;;;;14.30;8.50;;;;;;;17.54;46.76;100381.31;116927;1190;22984;-78
2021/10/03 08:25:07;;;;;;;8.80;6.90;;;;;;;17.69;46.66;100378.33;116949;1190;21883;-77
2021/10/03 08:27:37;;;;;;;11.40;7.00;;;;;;;17.86;46.54;100373.73;116930;1190;21889;-77
2021/10/03 08:30:11;;;;;;;11.80;7.50;;;;;;;18.06;46.23;100374.11;116814;1190;23515;-78
2021/10/03 08:32:42;;;;;;;12.10;8.40;;;;;;;18.33;46.24;100369.80;116815;1190;21905;-78
2021/10/03 08:35:11;;;;;;;11.90;9.00;;;;;;;18.59;45.58;100368.50;116798;1190;21912;-79
2021/10/03 08:37:42;;;;;;;9.40;8.00;;;;;;;18.76;45.19;100367.17;116916;1188;23591;-78
2021/10/03 08:40:13;;;;;;;15.20;9.20;;;;;;;18.97;44.95;100358.77;117196;1187;21928;-77
2021/10/03 08:42:48;;;;;;;17.60;12.90;;;;;;;19.25;44.68;100354.90;117097;1174;22903;-78
2021/10/03 08:45:17;;;;;;;13.00;9.80;;;;;;;19.52;43.93;100351.25;117139;1187;23491;-77
2021/10/03 08:47:48;;;;;;;8.10;7.10;;;;;;;19.67;42.89;100348.85;117197;1187;21908;-78
2021/10/03 08:50:19;;;;;;;9.30;7.30;;;;;;;19.79;42.82;100343.58;117274;1184;22167;-78
2021/10/03 08:52:49;;;;;;;8.40;6.90;;;;;;;19.92;41.96;100343.01;117213;1187;22032;-78
2021/10/03 08:55:22;;;;;;;9.10;6.60;;;;;;;19.89;41.22;100341.00;117166;1187;22222;-77
2021/10/03 08:57:52;;;;;;;11.60;6.80;;;;;;;19.83;41.46;100340.15;117170;1187;22642;-79
2021/10/03 09:00:24;;;;;;;8.40;5.70;;;;;;;19.78;41.31;100343.35;117233;1188;21904;-78
2021/10/03 09:02:57;;;;;;;15.70;7.30;;;;;;;19.75;41.22;100336.20;117235;1187;23543;-78
2021/10/03 09:05:32;;;;;;;11.40;6.70;;;;;;;19.81;41.28;100335.59;117120;1187;21863;-78
2021/10/03 09:08:15;;;;;;;10.70;5.90;;;;;;;19.79;40.66;100331.04;117223;1187;21897;-77
2021/10/03 09:11:03;;;;;;;17.40;7.30;;;;;;;19.83;41.12;100332.01;117112;1187;22298;-77
2021/10/03 09:13:32;;;;;;;9.50;5.80;;;;;;;19.88;41.13;100330.29;117169;1187;21999;-77
2021/10/03 09:16:13;;;;;;;11.70;6.40;;;;;;;20.01;41.07;100328.84;117199;1187;22670;-77
2021/10/03 09:19:09;;;;;;;10.70;5.50;;;;;;;20.20;40.86;100328.14;117127;1188;22713;-78
2021/10/03 09:21:44;;;;;;;11.50;6.60;;;;;;;20.30;40.27;100324.79;117156;1188;21882;-77
2021/10/03 09:24:16;;;;;;;11.40;6.80;;;;;;;20.34;40.03;100322.15;117224;1188;21952;-77
2021/10/03 09:27:08;;;;;;;;;;;;;;;20.42;39.81;100322.27;117186;1188;22341;-78
2021/10/03 09:29:38;;;;;;;8.80;5.80;;;;;;;20.40;39.41;100319.29;117161;1187;21997;-78
2021/10/03 09:32:18;;;;;;;10.90;7.30;;;;;;;20.46;39.21;100322.10;117110;1187;21888;-77
2021/10/03 09:34:52;;;;;;;8.40;6.60;;;;;;;20.60;39.38;100312.73;117173;1178;21933;-78
2021/10/03 09:37:32;;;;;;;10.10;6.20;;;;;;;20.77;39.41;100307.34;117169;1187;22135;-77
2021/10/03 09:40:06;;;;;;;8.20;6.10;;;;;;;20.88;38.95;100301.04;117158;1187;23444;-78
2021/10/03 09:42:36;;;;;;;8.10;6.10;;;;;;;21.01;39.07;100299.91;117170;1187;23490;-78
2021/10/03 09:45:15;;;;;;;7.90;5.70;;;;;;;21.14;38.65;100296.62;117156;1187;21886;-78
2021/10/03 09:47:45;;;;;;;9.90;6.10;;;;;;;21.23;38.46;100300.38;117125;1187;21897;-80
2021/10/03 09:50:16;;;;;;;17.40;6.40;;;;;;;21.31;38.09;100307.48;117165;1187;21893;-79
2021/10/03 09:52:45;;;;;;;16.90;6.50;;;;;;;21.39;38.05;100300.18;117070;1187;23403;-78
2021/10/03 09:55:14;;;;;;;10.80;7.00;;;;;;;21.49;37.98;100297.57;117214;1187;23549;-78
2021/10/03 09:57:44;;;;;;;10.20;6.20;;;;;;;21.64;37.77;100295.20;117241;1187;22259;-79
2021/10/03 10:00:16;;;;;;;5.90;5.30;;;;;;;21.81;37.56;100293.72;117130;1187;22329;-77
2021/10/03 10:02:48;;;;;;;20.80;7.20;;;;;;;21.95;37.13;100293.20;117184;1187;21898;-78
2021/10/03 10:05:27;;;;;;;8.30;6.40;;;;;;;21.97;36.65;100284.63;117214;1187;23431;-78
2021/10/03 10:07:58;;;;;;;10.60;6.80;;;;;;;22.05;37.04;100281.59;117152;1184;21885;-78
2021/10/03 10:10:33;;;;;;;7.70;6.20;;;;;;;22.19;36.33;100284.14;117065;1187;21898;-78
2021/10/03 10:13:11;;;;;;;8.20;5.80;;;;;;;22.30;36.31;100277.64;117217;1187;21865;-78
2021/10/03 10:15:40;;;;;;;7.90;5.80;;;;;;;22.39;36.17;100272.65;117063;1187;22854;-78
2021/10/03 10:18:25;;;;;;;10.30;5.60;;;;;;;22.48;36.28;100274.55;117173;1187;23626;-79
2021/10/03 10:20:54;;;;;;;10.00;6.80;;;;;;;22.57;35.60;100274.52;117206;1187;23471;-79
2021/10/03 10:23:30;;;;;;;10.70;6.20;;;;;;;22.66;35.89;100270.33;117128;1188;23487;-77
2021/10/03 10:26:03;;;;;;;12.60;5.90;;;;;;;22.87;35.75;100271.89;117082;1187;21892;-77
2021/10/03 10:28:32;;;;;;;9.10;5.80;;;;;;;22.95;35.01;100271.78;116789;1191;21904;-78
2021/10/03 10:31:23;;;;;;;11.10;5.70;;;;;;;22.88;34.71;100271.30;116768;1187;21920;-77
2021/10/03 10:33:56;;;;;;;12.30;5.70;;;;;;;22.84;34.88;100266.46;116820;1191;21898;-78
2021/10/03 10:36:50;;;;;;;7.90;6.10;;;;;;;22.86;35.16;100264.77;116772;1187;21903;-78
2021/10/03 10:39:23;;;;;;;12.80;7.40;;;;;;;22.99;34.99;100266.50;116818;1191;22528;-77
2021/10/03 10:41:58;;;;;;;9.70;6.20;;;;;;;23.15;34.93;100271.09;116801;1187;21895;-78
2021/10/03 10:44:37;;;;;;;12.90;5.80;;;;;;;23.08;34.29;100270.00;116751;1191;21873;-77
2021/10/03 10:47:14;;;;;;;13.00;6.20;;;;;;;22.83;34.22;100261.01;116919;1188;23488;-78
2021/10/03 10:50:13;;;;;;;10.00;6.40;;;;;;;22.64;34.66;100257.48;117157;1187;21893;-77
2021/10/03 10:52:42;;;;;;;12.20;5.50;;;;;;;22.59;34.89;100253.16;117210;1187;24144;-77
2021/10/03 10:55:23;;;;;;;8.50;5.70;;;;;;;22.52;35.01;100252.60;117193;1187;22905;-77
2021/10/03 10:58:01;;;;;;;8.60;6.00;;;;;;;22.43;35.35;100246.75;117110;1187;22044;-78
2021/10/03 11:00:32;;;;;;;9.10;6.70;;;;;;;22.33;35.61;100239.58;117167;1187;21887;-78
2021/10/03 11:03:04;;;;;;;8.90;6.90;;;;;;;22.16;35.78;100233.77;117199;1183;22611;-78
2021/10/03 11:05:37;;;;;;;10.10;6.80;;;;;;;22.07;36.24;100233.91;116953;1187;22006;-78
2021/10/03 11:08:11;;;;;;;8.60;6.10;;;;;;;22.00;36.53;100233.42;117066;1188;23459;-78
2021/10/03 11:11:03;;;;;;;8.90;6.20;;;;;;;21.84;36.61;100235.58;117207;1187;23531;-77
2021/10/03 11:13:41;;;;;;;10.70;6.00;;;;;;;21.58;37.05;100238.60;117164;1187;22014;-77
2021/10/03 11:16:46;;;;;;;12.90;6.60;;;;;;;21.42;37.51;100236.98;117208;1187;23470;-77
2021/10/03 11:19:38;;;;;;;7.60;5.50;;;;;;;21.17;37.61;100235.54;117166;1187;21888;-78
2021/10/03 11:22:18;;;;;;;12.70;6.00;;;;;;;20.93;38.19;100234.27;117225;1184;21896;-78
2021/10/03 11:24:52;;;;;;;9.10;6.50;;;;;;;20.81;38.61;100234.80;117251;1188;21918;-77
2021/10/03 11:27:30;;;;;;;14.60;7.50;;;;;;;20.68;38.94;100233.30;117111;1184;21956;-77
2021/10/03 11:30:01;;;;;;;7.70;6.70;;;;;;;20.61;39.30;100230.63;117208;1187;24637;-78